createdAt,value
2022-10-07T00:00:59.933Z,101760.25
2022-10-07T00:03:28.492Z,101761.94
2022-10-07T00:06:13.573Z,101757.47
2022-10-07T00:08:43.280Z,101759.94
2022-10-07T00:11:14.507Z,101761.59
2022-10-07T00:13:44.310Z,101764.94
2022-10-07T00:16:19.255Z,101765.00
2022-10-07T00:18:46.474Z,101765.69
2022-10-07T00:21:16.835Z,101750.31
2022-10-07T00:23:45.819Z,101764.13
2022-10-07T00:26:19.799Z,101754.31
2022-10-07T00:28:47.092Z,101750.94
2022-10-07T00:31:24.448Z,101765.69
2022-10-07T00:33:52.341Z,101760.31
2022-10-07T00:36:23.832Z,101750.94
2022-10-07T00:38:53.606Z,101755.66
2022-10-07T00:41:37.282Z,101753.16
2022-10-07T00:44:37.629Z,101758.03
2022-10-07T00:47:24.188Z,101755.94
2022-10-07T00:49:58.234Z,101755.78
2022-10-07T00:52:30.354Z,101754.03
2022-10-07T00:55:00.268Z,101755.59
2022-10-07T00:57:29.512Z,101746.88
2022-10-07T00:59:57.416Z,101751.50
2022-10-07T01:02:26.736Z,101755.50
2022-10-07T01:04:56.833Z,101744.56
2022-10-07T01:07:23.840Z,101751.78
2022-10-07T01:09:53.299Z,101756.94
2022-10-07T01:12:55.289Z,101749.03
2022-10-07T01:15:49.848Z,101744.56
2022-10-07T01:18:29.492Z,101742.59
2022-10-07T01:21:18.029Z,101743.47
2022-10-07T01:24:13.151Z,101745.22
2022-10-07T01:26:57.343Z,101729.47
2022-10-07T01:29:40.677Z,101746.78
2022-10-07T01:32:19.465Z,101741.50
2022-10-07T01:34:48.816Z,101741.75
2022-10-07T01:37:17.883Z,101744.94
2022-10-07T01:39:51.172Z,101750.28
2022-10-07T01:42:21.277Z,101748.38
2022-10-07T01:44:52.959Z,101750.75
2022-10-07T01:47:19.994Z,101749.19
2022-10-07T01:49:46.887Z,101753.28
2022-10-07T01:52:47.686Z,101754.03
2022-10-07T01:56:12.696Z,101747.22
2022-10-07T01:58:49.199Z,101748.03
2022-10-07T02:01:42.568Z,101746.13
2022-10-07T02:04:43.541Z,101745.03
2022-10-07T02:07:56.476Z,101747.94
2022-10-07T02:11:10.262Z,101757.06
2022-10-07T02:14:00.123Z,101751.09
2022-10-07T02:16:49.924Z,101752.53
2022-10-07T02:19:24.898Z,101753.34
2022-10-07T02:21:55.074Z,101749.91
2022-10-07T02:24:27.510Z,101749.81
2022-10-07T02:26:56.855Z,101746.91
2022-10-07T02:29:27.174Z,101749.34
2022-10-07T02:31:57.536Z,101743.91
2022-10-07T02:34:26.583Z,101747.72
2022-10-07T02:36:58.868Z,101748.91
2022-10-07T02:39:25.813Z,101744.47
2022-10-07T02:42:02.943Z,101745.44
2022-10-07T02:45:02.205Z,101744.34
2022-10-07T02:47:42.885Z,101748.34
2022-10-07T02:50:14.907Z,101743.09
2022-10-07T02:52:45.005Z,101741.72
2022-10-07T02:55:18.077Z,101739.97
2022-10-07T02:57:49.287Z,101743.59
2022-10-07T03:00:18.724Z,101730.03
2022-10-07T03:03:03.795Z,101736.41
2022-10-07T03:05:32.787Z,101748.06
2022-10-07T03:08:09.133Z,101742.81
2022-10-07T03:10:37.388Z,101738.88
2022-10-07T03:13:05.049Z,101739.97
2022-10-07T03:15:39.716Z,101743.31
2022-10-07T03:18:26.456Z,101736.84
2022-10-07T03:20:56.243Z,101729.88
2022-10-07T03:23:24.998Z,101741.59
2022-10-07T03:25:54.381Z,101732.31
2022-10-07T03:28:23.435Z,101734.66
2022-10-07T03:30:51.540Z,101737.47
2022-10-07T03:33:21.423Z,101740.00
2022-10-07T03:35:48.334Z,101738.56
2022-10-07T03:38:15.246Z,101737.03
2022-10-07T03:40:44.479Z,101733.31
2022-10-07T03:43:11.540Z,101728.78
2022-10-07T03:45:44.721Z,101729.13
2022-10-07T03:48:11.795Z,101735.66
2022-10-07T03:50:38.711Z,101730.47
2022-10-07T03:53:05.687Z,101719.13
2022-10-07T03:55:32.672Z,101732.38
2022-10-07T03:57:59.970Z,101725.22
2022-10-07T04:00:27.898Z,101725.13
2022-10-07T04:02:55.022Z,101717.94
2022-10-07T04:05:22.845Z,101720.38
2022-10-07T04:07:50.809Z,101717.31
2022-10-07T04:10:19.613Z,101719.66
2022-10-07T04:12:51.369Z,101707.72
2022-10-07T04:15:19.102Z,101710.84
2022-10-07T04:17:48.286Z,101712.38
2022-10-07T04:20:16.755Z,101716.72
2022-10-07T04:22:44.002Z,101718.56
2022-10-07T04:25:31.561Z,101713.94
2022-10-07T04:28:08.099Z,101706.03
2022-10-07T04:30:40.511Z,101715.31
2022-10-07T04:33:08.438Z,101710.03
2022-10-07T04:35:41.305Z,101709.13
2022-10-07T04:38:10.724Z,101714.31
2022-10-07T04:40:46.525Z,101704.56
2022-10-07T04:43:19.469Z,101702.59
2022-10-07T04:45:48.472Z,101704.25
2022-10-07T04:48:18.910Z,101709.31
2022-10-07T04:50:47.057Z,101705.16
2022-10-07T04:53:16.583Z,101699.06
2022-10-07T04:55:50.231Z,101704.25
2022-10-07T04:58:19.147Z,101699.34
2022-10-07T05:00:49.780Z,101690.72
2022-10-07T05:03:19.105Z,101704.66
2022-10-07T05:05:52.550Z,101700.19
2022-10-07T05:08:22.491Z,101699.25
2022-10-07T05:10:59.232Z,101695.56
2022-10-07T05:13:27.295Z,101681.03
2022-10-07T05:15:57.958Z,101691.06
2022-10-07T05:18:27.396Z,101692.31
2022-10-07T05:20:55.170Z,101694.41
2022-10-07T05:23:28.550Z,101696.75
2022-10-07T05:26:10.516Z,101690.47
2022-10-07T05:28:40.198Z,101702.31
2022-10-07T05:31:13.778Z,101696.28
2022-10-07T05:33:41.728Z,101698.28
2022-10-07T05:36:10.329Z,101690.81
2022-10-07T05:38:37.712Z,101694.31
2022-10-07T05:41:10.200Z,101700.50
2022-10-07T05:43:42.173Z,101703.47
2022-10-07T05:46:13.048Z,101694.66
2022-10-07T05:48:40.441Z,101701.97
2022-10-07T05:51:08.973Z,101700.00
2022-10-07T05:53:36.174Z,101698.34
2022-10-07T05:56:08.233Z,101703.66
2022-10-07T05:58:36.257Z,101700.03
2022-10-07T06:01:11.383Z,101710.25
2022-10-07T06:03:41.475Z,101710.19
2022-10-07T06:06:09.094Z,101707.25
2022-10-07T06:08:36.916Z,101706.50
2022-10-07T06:11:24.171Z,101710.59
2022-10-07T06:13:53.600Z,101716.13
2022-10-07T06:16:21.392Z,101718.63
2022-10-07T06:18:50.511Z,101717.06
2022-10-07T06:21:17.493Z,101713.88
2022-10-07T06:23:44.602Z,101722.94
2022-10-07T06:26:13.613Z,101722.72
2022-10-07T06:28:42.249Z,101725.31
2022-10-07T06:31:15.467Z,101715.72
2022-10-07T06:33:42.786Z,101712.16
2022-10-07T06:36:14.355Z,101705.34
2022-10-07T06:38:50.583Z,101712.63
2022-10-07T06:41:18.740Z,101706.75
2022-10-07T06:43:45.778Z,101707.88
2022-10-07T06:46:18.977Z,101712.38
2022-10-07T06:48:46.797Z,101703.28
2022-10-07T06:51:17.202Z,101708.53
2022-10-07T06:53:45.003Z,101708.75
2022-10-07T06:56:14.642Z,101710.72
2022-10-07T06:58:43.409Z,101714.34
2022-10-07T07:01:12.056Z,101710.66
2022-10-07T07:03:40.429Z,101714.19
2022-10-07T07:06:09.186Z,101710.03
2022-10-07T07:08:36.744Z,101708.72
2022-10-07T07:11:26.453Z,101708.91
2022-10-07T07:13:54.317Z,101702.78
2022-10-07T07:16:22.019Z,101707.38
2022-10-07T07:18:57.482Z,101704.13
2022-10-07T07:21:26.137Z,101704.09
2022-10-07T07:23:53.073Z,101696.63
2022-10-07T07:26:20.628Z,101705.69
2022-10-07T07:29:06.099Z,101703.88
2022-10-07T07:31:36.432Z,101697.78
2022-10-07T07:34:11.467Z,101697.91
2022-10-07T07:36:45.314Z,101693.31
2022-10-07T07:39:16.477Z,101694.03
2022-10-07T07:41:46.863Z,101699.25
2022-10-07T07:44:16.389Z,101696.91
2022-10-07T07:46:49.147Z,101690.81
2022-10-07T07:49:16.925Z,101694.25
2022-10-07T07:51:44.139Z,101690.09
2022-10-07T07:54:12.761Z,101700.63
2022-10-07T07:56:39.850Z,101690.59
2022-10-07T07:59:08.299Z,101697.66
2022-10-07T08:01:35.952Z,101693.97
2022-10-07T08:04:04.265Z,101694.22
2022-10-07T08:06:31.826Z,101692.13
2022-10-07T08:08:59.571Z,101687.22
2022-10-07T08:11:27.933Z,101679.09
2022-10-07T08:13:56.261Z,101679.22
2022-10-07T08:16:26.452Z,101687.19
2022-10-07T08:18:55.515Z,101677.63
2022-10-07T08:21:26.966Z,101678.28
2022-10-07T08:23:58.948Z,101673.63
2022-10-07T08:26:31.093Z,101673.16
2022-10-07T08:28:58.454Z,101665.56
2022-10-07T08:31:29.317Z,101666.38
2022-10-07T08:33:59.741Z,101661.19
2022-10-07T08:36:29.425Z,101662.28
2022-10-07T08:38:56.701Z,101657.31
2022-10-07T08:41:34.341Z,101654.81
2022-10-07T08:44:16.652Z,101659.84
2022-10-07T08:47:24.283Z,101648.59
2022-10-07T08:50:20.402Z,101649.06
2022-10-07T08:52:55.672Z,101640.06
2022-10-07T08:55:31.458Z,101637.97
2022-10-07T08:58:23.071Z,101644.00
2022-10-07T09:01:22.610Z,101635.06
2022-10-07T09:04:10.803Z,101636.34
2022-10-07T09:07:09.993Z,101628.97
2022-10-07T09:09:45.320Z,101620.44
2022-10-07T09:12:30.528Z,101632.34
2022-10-07T09:15:02.032Z,101626.13
2022-10-07T09:18:00.154Z,101626.53
2022-10-07T09:20:33.292Z,101632.03
2022-10-07T09:23:03.183Z,101632.84
2022-10-07T09:25:31.922Z,101623.47
2022-10-07T09:27:58.948Z,101619.16
2022-10-07T09:30:28.746Z,101622.78
2022-10-07T09:32:57.107Z,101616.34
2022-10-07T09:35:29.742Z,101604.88
2022-10-07T09:38:04.136Z,101598.22
2022-10-07T09:41:01.284Z,101594.94
2022-10-07T09:43:31.445Z,101602.81
2022-10-07T09:46:00.807Z,101602.16
2022-10-07T09:48:34.982Z,101594.84
2022-10-07T09:51:21.738Z,101592.59
2022-10-07T09:54:16.894Z,101575.28
2022-10-07T09:56:46.743Z,101572.16
2022-10-07T09:59:25.533Z,101587.53
2022-10-07T10:01:56.762Z,101582.75
2022-10-07T10:04:57.264Z,101570.47
2022-10-07T10:07:36.640Z,101570.41
2022-10-07T10:10:21.429Z,101573.28
2022-10-07T10:12:55.949Z,101556.75
2022-10-07T10:15:42.973Z,101560.53
2022-10-07T10:18:41.392Z,101551.75
2022-10-07T10:21:22.167Z,101553.22
2022-10-07T10:23:56.881Z,101551.00
2022-10-07T10:27:10.012Z,101541.34
2022-10-07T10:29:51.932Z,101537.97
2022-10-07T10:33:04.971Z,101532.84
2022-10-07T10:35:40.427Z,101532.63
2022-10-07T10:38:37.166Z,101527.97
2022-10-07T10:41:20.093Z,101522.78
2022-10-07T10:44:08.026Z,101518.50
2022-10-07T10:47:23.061Z,101517.25
2022-10-07T10:50:23.747Z,101514.88
2022-10-07T10:53:34.737Z,101497.50
2022-10-07T10:56:17.455Z,101497.94
2022-10-07T10:59:31.971Z,101498.78
2022-10-07T11:02:43.498Z,101493.88
2022-10-07T11:05:36.795Z,101472.41
2022-10-07T11:08:17.070Z,101475.16
2022-10-07T11:10:48.899Z,101473.94
2022-10-07T11:13:41.077Z,101462.16
2022-10-07T11:16:17.614Z,101461.97
2022-10-07T11:19:09.894Z,101459.88
2022-10-07T11:21:49.825Z,101441.72
2022-10-07T11:24:31.362Z,101445.66
2022-10-07T11:27:29.561Z,101441.78
2022-10-07T11:30:23.108Z,101429.72
2022-10-07T11:33:08.164Z,101431.13
2022-10-07T11:35:55.463Z,101423.38
2022-10-07T11:38:37.470Z,101419.19
2022-10-07T11:41:30.670Z,101409.56
2022-10-07T11:44:05.847Z,101401.50
2022-10-07T11:46:41.163Z,101403.44
2022-10-07T11:49:20.113Z,101397.13
2022-10-07T11:52:18.328Z,101389.06
2022-10-07T11:55:08.722Z,101383.66
2022-10-07T11:57:43.346Z,101383.66
2022-10-07T12:00:36.786Z,101381.91
2022-10-07T12:03:12.545Z,101371.97
2022-10-07T12:05:39.390Z,101365.72
2022-10-07T12:08:43.384Z,101358.63
2022-10-07T12:11:13.267Z,101352.28
2022-10-07T12:13:54.809Z,101353.88
2022-10-07T12:16:30.484Z,101346.69
2022-10-07T12:19:10.832Z,101343.09
2022-10-07T12:21:59.565Z,101344.63
2022-10-07T12:24:32.660Z,101337.69
2022-10-07T12:27:17.700Z,101332.25
2022-10-07T12:30:02.464Z,101333.91
2022-10-07T12:32:51.174Z,101335.50
2022-10-07T12:35:30.135Z,101326.53
2022-10-07T12:38:10.989Z,101331.09
2022-10-07T12:40:38.549Z,101323.75
2022-10-07T12:43:32.247Z,101325.66
2022-10-07T12:46:01.027Z,101324.53
2022-10-07T12:48:46.231Z,101319.97
2022-10-07T12:51:24.461Z,101296.53
2022-10-07T12:53:53.064Z,101307.41
2022-10-07T12:56:28.930Z,101301.97
2022-10-07T12:59:45.233Z,101297.50
2022-10-07T13:02:53.596Z,101285.91
2022-10-07T13:05:29.223Z,101286.75
2022-10-07T13:08:36.619Z,101284.78
2022-10-07T13:11:48.051Z,101274.06
2022-10-07T13:14:43.800Z,101269.63
2022-10-07T13:17:45.280Z,101271.44
2022-10-07T13:20:41.961Z,101267.63
2022-10-07T13:23:21.984Z,101255.34
2022-10-07T13:25:53.920Z,101249.25
2022-10-07T13:28:24.950Z,101248.31
2022-10-07T13:30:53.550Z,101248.31
2022-10-07T13:33:31.600Z,101240.91
2022-10-07T13:36:27.694Z,101238.78
2022-10-07T13:39:19.588Z,101227.44
2022-10-07T13:41:50.240Z,101225.59
2022-10-07T13:44:22.723Z,101221.09
2022-10-07T13:46:57.325Z,101208.91
2022-10-07T13:49:38.072Z,101214.13
2022-10-07T13:52:17.338Z,101201.59
2022-10-07T13:54:52.178Z,101198.97
2022-10-07T13:57:21.471Z,101203.31
2022-10-07T13:59:51.616Z,101193.53
2022-10-07T14:02:20.554Z,101183.72
2022-10-07T14:05:05.936Z,101184.44
2022-10-07T14:07:32.916Z,101185.41
2022-10-07T14:09:59.788Z,101179.03
2022-10-07T14:12:41.985Z,101175.47
2022-10-07T14:15:22.979Z,101169.03
2022-10-07T14:18:06.502Z,101159.19
2022-10-07T14:20:55.895Z,101161.97
2022-10-07T14:23:31.397Z,101150.47
2022-10-07T14:26:09.840Z,101153.97
2022-10-07T14:28:39.326Z,101141.47
2022-10-07T14:31:27.909Z,101142.22
2022-10-07T14:34:33.486Z,101138.78
2022-10-07T14:37:09.780Z,101132.53
2022-10-07T14:39:45.278Z,101117.28
2022-10-07T14:42:29.507Z,101126.19
2022-10-07T14:44:57.646Z,101106.63
2022-10-07T14:47:28.153Z,101113.53
2022-10-07T14:49:59.173Z,101105.41
2022-10-07T14:52:46.172Z,101098.34
2022-10-07T14:55:26.616Z,101086.13
2022-10-07T14:57:54.126Z,101092.25
2022-10-07T15:00:27.750Z,101085.94
2022-10-07T15:02:54.801Z,101069.09
2022-10-07T15:05:23.081Z,101082.50
2022-10-07T15:07:50.807Z,101071.00
2022-10-07T15:10:25.292Z,101070.03
2022-10-07T15:12:53.294Z,101070.84
2022-10-07T15:15:20.287Z,101066.50
2022-10-07T15:17:48.101Z,101070.63
2022-10-07T15:20:16.781Z,101059.88
2022-10-07T15:22:45.865Z,101048.38
2022-10-07T15:25:15.369Z,101067.91
2022-10-07T15:27:42.891Z,101054.16
2022-10-07T15:30:11.324Z,101052.13
2022-10-07T15:32:38.388Z,101064.34
2022-10-07T15:35:05.973Z,101059.00
2022-10-07T15:37:33.654Z,101052.66
2022-10-07T15:40:00.986Z,101047.25
2022-10-07T15:42:28.023Z,101047.31
2022-10-07T15:44:55.001Z,101041.84
2022-10-07T15:47:22.190Z,101040.03
2022-10-07T15:49:49.735Z,101043.28
2022-10-07T15:52:16.911Z,101042.16
2022-10-07T15:54:45.506Z,101043.88
2022-10-07T15:57:14.295Z,101036.88
2022-10-07T15:59:42.334Z,101036.78
2022-10-07T16:02:16.760Z,101037.59
2022-10-07T16:04:47.406Z,101028.50
2022-10-07T16:07:15.595Z,101025.94
2022-10-07T16:09:42.619Z,101040.00
2022-10-07T16:12:09.639Z,101039.03
2022-10-07T16:14:36.634Z,101038.81
2022-10-07T16:17:04.306Z,101031.59
2022-10-07T16:19:31.292Z,101030.88
2022-10-07T16:21:58.203Z,101037.78
2022-10-07T16:24:25.488Z,101028.59
2022-10-07T16:26:53.102Z,101037.56
2022-10-07T16:29:41.335Z,101031.25
2022-10-07T16:32:10.965Z,101026.72
2022-10-07T16:34:43.169Z,101027.44
2022-10-07T16:37:11.209Z,101021.06
2022-10-07T16:39:38.360Z,101024.63
2022-10-07T16:42:05.830Z,101029.97
2022-10-07T16:44:32.835Z,101024.53
2022-10-07T16:47:00.292Z,101027.13
2022-10-07T16:49:30.243Z,101022.38
2022-10-07T16:51:58.430Z,101013.50
2022-10-07T16:54:28.490Z,101006.09
2022-10-07T16:56:57.658Z,101010.66
2022-10-07T16:59:25.656Z,101007.72
2022-10-07T17:01:56.086Z,101012.53
2022-10-07T17:04:24.966Z,101002.66
2022-10-07T17:06:53.132Z,100997.19
2022-10-07T17:09:21.893Z,100999.81
2022-10-07T17:11:49.053Z,101005.81
2022-10-07T17:14:20.154Z,101004.09
2022-10-07T17:16:55.450Z,100993.41
2022-10-07T17:19:28.933Z,100990.66
2022-10-07T17:21:59.360Z,100998.50
2022-10-07T17:24:26.716Z,100990.69
2022-10-07T17:26:53.839Z,100984.19
2022-10-07T17:29:24.288Z,100985.94
2022-10-07T17:31:51.672Z,100989.31
2022-10-07T17:34:20.805Z,100986.75
2022-10-07T17:36:49.319Z,100984.13
2022-10-07T17:39:18.989Z,100983.56
2022-10-07T17:41:45.999Z,100989.53
2022-10-07T17:44:13.301Z,100992.09
2022-10-07T17:46:41.295Z,100976.13
2022-10-07T17:49:13.538Z,100974.94
2022-10-07T17:51:43.051Z,100983.91
2022-10-07T17:54:13.517Z,100980.06
2022-10-07T17:56:40.630Z,100962.16
2022-10-07T17:59:07.781Z,100968.06
2022-10-07T18:01:35.581Z,100966.44
2022-10-07T18:04:09.699Z,100964.94
2022-10-07T18:06:39.240Z,100957.63
2022-10-07T18:09:09.281Z,100959.41
2022-10-07T18:11:55.233Z,100960.50
2022-10-07T18:14:42.011Z,100954.13
2022-10-07T18:17:10.648Z,100954.81
2022-10-07T18:19:39.763Z,100942.38
2022-10-07T18:22:06.984Z,100950.69
2022-10-07T18:24:34.544Z,100946.13
2022-10-07T18:27:02.543Z,100943.13
2022-10-07T18:29:33.634Z,100944.41
2022-10-07T18:32:01.099Z,100946.03
2022-10-07T18:34:28.547Z,100936.03
2022-10-07T18:36:57.200Z,100945.69
2022-10-07T18:39:27.683Z,100941.34
2022-10-07T18:41:55.202Z,100941.13
2022-10-07T18:44:22.336Z,100928.53
2022-10-07T18:46:49.577Z,100931.25
2022-10-07T18:49:16.579Z,100932.19
2022-10-07T18:51:45.691Z,100938.34
2022-10-07T18:54:13.047Z,100928.44
2022-10-07T18:56:41.311Z,100932.16
2022-10-07T18:59:10.052Z,100924.97
2022-10-07T19:01:37.846Z,100926.44
2022-10-07T19:04:06.248Z,100931.34
2022-10-07T19:06:37.732Z,100931.13
2022-10-07T19:09:09.593Z,100932.69
2022-10-07T19:11:36.626Z,100926.72
2022-10-07T19:14:03.693Z,100933.13
2022-10-07T19:16:38.184Z,100926.22
2022-10-07T19:19:20.789Z,100918.22
2022-10-07T19:21:51.712Z,100931.41
2022-10-07T19:24:20.088Z,100927.09
2022-10-07T19:26:49.972Z,100934.91
2022-10-07T19:29:18.105Z,100931.53
2022-10-07T19:31:49.876Z,100919.84
2022-10-07T19:34:21.222Z,100917.00
2022-10-07T19:36:49.975Z,100915.25
2022-10-07T19:39:22.299Z,100913.31
2022-10-07T19:41:51.095Z,100908.69
2022-10-07T19:44:18.788Z,100918.41
2022-10-07T19:46:45.709Z,100912.94
2022-10-07T19:49:12.740Z,100904.00
2022-10-07T19:51:41.917Z,100908.47
2022-10-07T19:54:10.747Z,100902.28
2022-10-07T19:56:40.141Z,100905.47
2022-10-07T19:59:12.898Z,100896.28
2022-10-07T20:01:43.332Z,100895.13
2022-10-07T20:04:14.291Z,100912.47
2022-10-07T20:06:41.747Z,100910.94
2022-10-07T20:09:15.108Z,100902.09
2022-10-07T20:11:43.130Z,100898.59
2022-10-07T20:14:10.342Z,100903.59
2022-10-07T20:16:39.170Z,100894.13
2022-10-07T20:19:14.329Z,100889.63
2022-10-07T20:21:41.387Z,100888.63
2022-10-07T20:24:08.984Z,100882.88
2022-10-07T20:26:38.838Z,100882.88
2022-10-07T20:29:10.055Z,100881.91
2022-10-07T20:31:40.340Z,100885.50
2022-10-07T20:34:11.958Z,100879.59
2022-10-07T20:36:40.811Z,100876.94
2022-10-07T20:39:38.351Z,100859.31
2022-10-07T20:42:21.292Z,100879.59
2022-10-07T20:44:49.895Z,100867.13
2022-10-07T20:47:18.039Z,100862.53
2022-10-07T20:49:45.214Z,100863.03
2022-10-07T20:52:16.845Z,100863.66
2022-10-07T20:54:45.754Z,100870.38
2022-10-07T20:57:16.294Z,100859.78
2022-10-07T20:59:43.819Z,100864.97
2022-10-07T21:02:13.574Z,100866.81
2022-10-07T21:04:40.701Z,100853.25
2022-10-07T21:07:10.995Z,100849.28
2022-10-07T21:09:38.018Z,100849.06
2022-10-07T21:12:09.182Z,100856.84
2022-10-07T21:14:36.966Z,100847.38
2022-10-07T21:17:05.944Z,100848.91
2022-10-07T21:19:35.775Z,100845.88
2022-10-07T21:22:05.221Z,100837.28
2022-10-07T21:24:35.543Z,100838.34
2022-10-07T21:27:04.784Z,100825.81
2022-10-07T21:29:37.414Z,100824.19
2022-10-07T21:32:06.475Z,100823.03
2022-10-07T21:34:33.469Z,100817.84
2022-10-07T21:37:00.802Z,100818.75
2022-10-07T21:39:27.916Z,100815.25
2022-10-07T21:41:55.182Z,100808.03
2022-10-07T21:44:22.116Z,100811.09
2022-10-07T21:46:49.277Z,100806.41
2022-10-07T21:49:17.512Z,100798.22
2022-10-07T21:51:44.780Z,100804.25
2022-10-07T21:54:14.289Z,100796.13
2022-10-07T21:56:43.573Z,100781.13
2022-10-07T21:59:10.899Z,100802.03
2022-10-07T22:01:38.864Z,100796.44
2022-10-07T22:04:07.252Z,100785.31
2022-10-07T22:06:52.903Z,100785.13
2022-10-07T22:09:21.444Z,100781.78
2022-10-07T22:11:50.330Z,100783.19
2022-10-07T22:14:19.116Z,100775.53
2022-10-07T22:16:48.459Z,100765.34
2022-10-07T22:19:17.449Z,100768.97
2022-10-07T22:21:45.837Z,100762.44
2022-10-07T22:24:13.090Z,100761.97
2022-10-07T22:26:46.357Z,100755.00
2022-10-07T22:29:16.243Z,100753.84
2022-10-07T22:31:43.552Z,100739.84
2022-10-07T22:34:30.562Z,100741.44
2022-10-07T22:36:58.305Z,100742.47
2022-10-07T22:39:26.463Z,100733.28
2022-10-07T22:41:53.681Z,100728.34
2022-10-07T22:44:20.910Z,100735.22
2022-10-07T22:46:47.913Z,100726.16
2022-10-07T22:49:15.255Z,100728.81
2022-10-07T22:51:43.095Z,100720.72
2022-10-07T22:54:12.859Z,100717.69
2022-10-07T22:56:40.241Z,100719.63
2022-10-07T22:59:08.673Z,100718.19
2022-10-07T23:01:35.940Z,100708.88
2022-10-07T23:04:04.442Z,100702.94
2022-10-07T23:06:34.773Z,100705.63
2022-10-07T23:09:03.260Z,100705.50
2022-10-07T23:11:30.940Z,100700.03
2022-10-07T23:13:58.218Z,100698.97
2022-10-07T23:16:29.707Z,100693.72
2022-10-07T23:18:58.665Z,100693.03
2022-10-07T23:21:29.904Z,100695.72
2022-10-07T23:24:06.858Z,100693.03
2022-10-07T23:26:34.961Z,100694.88
2022-10-07T23:29:02.801Z,100689.03
2022-10-07T23:31:32.053Z,100686.53
2022-10-07T23:34:01.172Z,100687.38
2022-10-07T23:36:28.456Z,100677.16
2022-10-07T23:38:55.827Z,100677.59
2022-10-07T23:41:26.368Z,100680.28
2022-10-07T23:43:57.078Z,100677.59
2022-10-07T23:46:27.073Z,100668.84
2022-10-07T23:48:55.962Z,100671.47
2022-10-07T23:51:26.164Z,100665.34
2022-10-07T23:53:53.588Z,100666.72
2022-10-07T23:56:20.544Z,100659.75
2022-10-07T23:58:47.536Z,100658.09
